createdAt,value
2017-11-11T00:03:59.002Z,5.00
2017-11-11T00:09:00.073Z,5.00
2017-11-11T00:14:01.135Z,5.00
2017-11-11T00:19:02.207Z,5.10
2017-11-11T00:24:03.274Z,5.20
2017-11-11T00:29:04.327Z,5.10
2017-11-11T00:34:06.149Z,4.60
2017-11-11T00:39:08.155Z,4.60
2017-11-11T00:44:09.260Z,4.60
2017-11-11T00:49:11.071Z,4.30
2017-11-11T00:54:12.125Z,4.30
2017-11-11T00:59:13.160Z,4.10
2017-11-11T01:04:15.878Z,3.90
2017-11-11T01:09:16.954Z,3.90
2017-11-11T01:14:18.034Z,3.90
2017-11-11T01:19:19.102Z,3.70
2017-11-11T01:24:20.181Z,3.50
2017-11-11T01:29:21.955Z,3.40
2017-11-11T01:34:23.025Z,3.40
2017-11-11T01:39:24.879Z,3.20
2017-11-11T01:44:25.959Z,3.20
2017-11-11T01:49:27.794Z,2.90
2017-11-11T01:54:28.858Z,2.90
2017-11-11T01:59:29.943Z,2.90
2017-11-11T02:04:31.810Z,2.80
2017-11-11T02:09:32.906Z,2.80
2017-11-11T02:14:33.981Z,2.70
2017-11-11T02:19:35.102Z,2.60
2017-11-11T02:24:36.933Z,2.60
2017-11-11T02:29:38.027Z,2.60
2017-11-11T02:34:39.849Z,2.70
2017-11-11T02:39:40.949Z,2.60
2017-11-11T02:44:42.063Z,2.60
2017-11-11T02:49:43.173Z,2.60
2017-11-11T02:54:44.258Z,2.50
2017-11-11T02:59:46.046Z,2.70
2017-11-11T03:04:47.130Z,2.70
2017-11-11T03:09:48.185Z,2.50
2017-11-11T03:14:49.270Z,2.40
2017-11-11T03:19:50.335Z,2.20
2017-11-11T03:24:51.428Z,2.10
2017-11-11T03:29:52.501Z,2.10
2017-11-11T03:34:54.377Z,2.00
2017-11-11T03:39:55.481Z,1.90
2017-11-11T03:44:56.542Z,2.00
2017-11-11T03:49:57.640Z,1.90
2017-11-11T03:54:59.441Z,1.60
2017-11-11T04:00:00.513Z,1.60
2017-11-11T04:05:01.612Z,1.60
2017-11-11T04:10:02.738Z,1.50
2017-11-11T04:15:03.831Z,1.40
2017-11-11T04:20:05.657Z,1.20
2017-11-11T04:25:06.733Z,1.20
2017-11-11T04:30:07.795Z,1.20
2017-11-11T04:35:08.834Z,1.20
2017-11-11T04:40:10.898Z,1.20
2017-11-11T04:45:11.961Z,1.30
2017-11-11T04:50:13.084Z,1.30
2017-11-11T04:55:14.886Z,0.90
2017-11-11T05:00:15.951Z,0.90
2017-11-11T05:05:17.062Z,0.80
2017-11-11T05:10:18.127Z,0.70
2017-11-11T05:15:19.191Z,0.70
2017-11-11T05:20:21.017Z,0.70
2017-11-11T05:25:22.095Z,0.70
2017-11-11T05:30:23.182Z,0.60
2017-11-11T05:35:24.997Z,0.50
2017-11-11T05:40:26.102Z,0.40
2017-11-11T05:45:27.194Z,0.60
2017-11-11T05:50:29.017Z,0.60
2017-11-11T05:55:30.082Z,0.60
2017-11-11T06:00:31.242Z,0.60
2017-11-11T06:05:32.342Z,0.60
2017-11-11T06:10:33.422Z,0.60
2017-11-11T06:15:34.494Z,0.60
2017-11-11T06:20:36.306Z,1.00
2017-11-11T06:25:37.358Z,1.00
2017-11-11T06:30:38.453Z,1.40
2017-11-11T06:35:40.262Z,1.90
2017-11-11T06:40:41.328Z,1.90
2017-11-11T06:45:42.417Z,2.10
2017-11-11T06:50:43.489Z,2.20
2017-11-11T06:55:45.840Z,2.60
2017-11-11T07:00:46.918Z,2.50
2017-11-11T07:05:47.994Z,2.80
2017-11-11T07:10:49.801Z,3.40
2017-11-11T07:15:50.898Z,3.40
2017-11-11T07:20:51.999Z,3.60
2017-11-11T07:25:53.821Z,3.80
2017-11-11T07:30:55.854Z,3.80
2017-11-11T07:35:57.670Z,4.00
2017-11-11T07:40:58.746Z,4.00
2017-11-11T07:45:59.844Z,4.10
2017-11-11T07:51:01.657Z,4.30
2017-11-11T07:56:02.755Z,4.30
2017-11-11T08:01:03.819Z,4.50
2017-11-11T08:06:05.459Z,4.80
2017-11-11T08:11:06.545Z,4.90
2017-11-11T08:16:07.619Z,5.10
2017-11-11T08:21:08.722Z,5.20
2017-11-11T08:26:09.809Z,5.40
2017-11-11T08:31:10.889Z,5.40
2017-11-11T08:36:11.970Z,5.60
2017-11-11T08:41:13.953Z,5.40
2017-11-11T08:46:15.762Z,5.40
2017-11-11T08:51:16.830Z,5.40
2017-11-11T08:56:17.916Z,5.50
2017-11-11T09:01:18.982Z,5.40
2017-11-11T09:06:20.786Z,5.20
2017-11-11T09:11:21.847Z,5.20
2017-11-11T09:16:22.930Z,5.30
2017-11-11T09:21:24.002Z,5.30
2017-11-11T09:26:25.373Z,5.30
2017-11-11T09:31:26.437Z,5.30
2017-11-11T09:36:27.512Z,5.40
2017-11-11T09:41:31.853Z,5.40
2017-11-11T09:46:33.670Z,5.30
2017-11-11T09:51:34.763Z,5.30
2017-11-11T09:56:35.849Z,5.40
2017-11-11T10:01:37.637Z,5.50
2017-11-11T10:06:38.695Z,5.50
2017-11-11T10:11:40.510Z,5.90
2017-11-11T10:16:41.582Z,5.90
2017-11-11T10:21:42.682Z,6.20
2017-11-11T10:26:44.496Z,6.40
2017-11-11T10:31:45.574Z,6.40
2017-11-11T10:36:47.438Z,6.50
2017-11-11T10:41:48.536Z,6.40
2017-11-11T10:46:49.626Z,6.40
2017-11-11T10:51:50.698Z,6.50
2017-11-11T10:56:51.816Z,6.60
2017-11-11T11:01:53.010Z,6.60
2017-11-11T11:06:54.103Z,6.70
2017-11-11T11:11:55.214Z,6.60
2017-11-11T11:16:57.005Z,6.60
2017-11-11T11:21:58.062Z,6.60
2017-11-11T11:26:59.131Z,6.90
2017-11-11T11:32:00.220Z,7.10
2017-11-11T11:37:01.294Z,7.50
2017-11-11T11:42:02.371Z,7.60
2017-11-11T11:47:03.442Z,7.90
2017-11-11T11:52:05.094Z,8.10
2017-11-11T11:57:06.905Z,8.10
2017-11-11T12:02:07.983Z,8.10
2017-11-11T12:07:09.030Z,8.30
2017-11-11T12:12:10.065Z,8.50
2017-11-11T12:17:11.121Z,8.50
2017-11-11T12:22:12.178Z,8.20
2017-11-11T12:27:13.970Z,7.90
2017-11-11T12:32:15.020Z,7.80
2017-11-11T12:37:16.077Z,7.70
2017-11-11T12:42:17.131Z,7.70
2017-11-11T12:47:18.200Z,7.70
2017-11-11T12:52:19.242Z,7.70
2017-11-11T12:57:21.096Z,7.30
2017-11-11T13:02:22.886Z,7.20
2017-11-11T13:07:24.678Z,7.20
2017-11-11T13:12:25.747Z,7.20
2017-11-11T13:17:26.798Z,7.20
2017-11-11T13:22:27.857Z,7.00
2017-11-11T13:27:28.896Z,6.90
2017-11-11T13:32:30.714Z,6.60
2017-11-11T13:37:31.809Z,6.50
2017-11-11T13:42:32.898Z,6.40
2017-11-11T13:47:33.990Z,6.40
2017-11-11T13:52:35.070Z,6.30
2017-11-11T13:57:36.138Z,6.30
2017-11-11T14:02:37.212Z,6.30
2017-11-11T14:07:38.995Z,6.20
2017-11-11T14:12:40.797Z,6.20
2017-11-11T14:17:41.894Z,6.20
2017-11-11T14:22:42.937Z,6.20
2017-11-11T14:27:44.001Z,6.20
2017-11-11T14:32:45.070Z,6.20
2017-11-11T14:37:46.170Z,6.10
2017-11-11T14:42:47.246Z,6.10
2017-11-11T14:47:48.333Z,6.10
2017-11-11T14:52:49.407Z,6.10
2017-11-11T14:57:50.466Z,6.00
2017-11-11T15:02:51.520Z,6.00
2017-11-11T15:07:52.831Z,6.00
2017-11-11T15:12:53.893Z,6.00
2017-11-11T15:17:54.988Z,6.00
2017-11-11T15:22:59.987Z,6.00
2017-11-11T15:28:01.828Z,6.00
2017-11-11T15:33:02.890Z,6.00
2017-11-11T15:38:03.955Z,6.10
2017-11-11T15:43:05.010Z,6.10
2017-11-11T15:48:06.070Z,6.10
2017-11-11T15:53:07.162Z,6.10
2017-11-11T15:58:08.245Z,6.10
2017-11-11T16:03:12.949Z,6.10
2017-11-11T16:08:14.753Z,6.00
2017-11-11T16:13:15.840Z,6.00
2017-11-11T16:18:17.641Z,6.00
2017-11-11T16:23:18.741Z,6.00
2017-11-11T16:28:19.803Z,6.00
2017-11-11T16:33:20.867Z,6.00
2017-11-11T16:38:21.918Z,6.00
2017-11-11T16:43:23.002Z,6.10
2017-11-11T16:48:24.055Z,6.00
2017-11-11T16:53:25.167Z,6.10
2017-11-11T16:58:26.970Z,6.10
2017-11-11T17:03:28.046Z,6.10
2017-11-11T17:08:29.114Z,6.10
2017-11-11T17:13:30.209Z,6.20
2017-11-11T17:18:32.010Z,6.20
2017-11-11T17:23:33.105Z,6.20
2017-11-11T17:28:34.178Z,6.20
2017-11-11T17:33:35.271Z,6.20
2017-11-11T17:38:37.068Z,6.20
2017-11-11T17:43:38.134Z,6.20
2017-11-11T17:48:41.332Z,6.30
2017-11-11T17:53:42.851Z,6.30
2017-11-11T17:58:43.930Z,6.30
2017-11-11T18:03:45.013Z,6.40
2017-11-11T18:08:46.098Z,6.40
2017-11-11T18:13:47.154Z,6.40
2017-11-11T18:18:48.216Z,6.40
2017-11-11T18:23:49.281Z,6.40
2017-11-11T18:28:50.369Z,6.40
2017-11-11T18:33:51.531Z,6.50
2017-11-11T18:38:52.602Z,6.50
2017-11-11T18:43:58.121Z,6.60
2017-11-11T18:48:59.207Z,6.50
2017-11-11T18:54:00.298Z,6.50
2017-11-11T18:59:01.353Z,6.50
2017-11-11T19:04:03.181Z,6.60
2017-11-11T19:09:04.302Z,6.60
2017-11-11T19:14:05.502Z,6.60
2017-11-11T19:19:06.586Z,6.60
2017-11-11T19:24:07.757Z,6.60
2017-11-11T19:29:09.576Z,6.70
2017-11-11T19:34:10.690Z,6.70
2017-11-11T19:39:11.766Z,6.70
2017-11-11T19:44:13.639Z,6.70
2017-11-11T19:49:15.467Z,6.70
2017-11-11T19:54:16.577Z,6.70
2017-11-11T19:59:18.374Z,6.80
2017-11-11T20:04:19.433Z,6.70
2017-11-11T20:09:20.494Z,6.80
2017-11-11T20:14:21.542Z,6.80
2017-11-11T20:19:22.609Z,6.80
2017-11-11T20:24:24.109Z,6.80
2017-11-11T20:29:25.197Z,6.80
2017-11-11T20:34:26.346Z,6.80
2017-11-11T20:39:27.416Z,6.80
2017-11-11T20:44:28.467Z,6.80
2017-11-11T20:49:29.538Z,6.80
2017-11-11T20:54:31.338Z,6.80
2017-11-11T20:59:32.417Z,6.80
2017-11-11T21:04:33.486Z,6.80
2017-11-11T21:09:34.539Z,6.80
2017-11-11T21:14:35.594Z,6.90
2017-11-11T21:19:36.675Z,6.90
2017-11-11T21:24:37.746Z,6.90
2017-11-11T21:29:39.565Z,6.90
2017-11-11T21:34:40.606Z,6.90
2017-11-11T21:39:42.409Z,7.00
2017-11-11T21:44:43.480Z,6.90
2017-11-11T21:49:45.258Z,6.90
2017-11-11T21:54:46.454Z,6.90
2017-11-11T21:59:47.519Z,6.90
2017-11-11T22:04:48.595Z,6.90
2017-11-11T22:09:50.378Z,6.90
2017-11-11T22:14:51.442Z,6.90
2017-11-11T22:19:52.512Z,7.00
2017-11-11T22:24:53.552Z,6.90
2017-11-11T22:29:54.605Z,6.90
2017-11-11T22:34:55.668Z,6.90
2017-11-11T22:39:56.723Z,6.90
2017-11-11T22:44:57.773Z,6.80
2017-11-11T22:49:59.571Z,6.50
2017-11-11T22:55:00.630Z,6.40
2017-11-11T23:00:01.706Z,6.20
2017-11-11T23:05:02.804Z,6.00
2017-11-11T23:10:03.878Z,5.90
2017-11-11T23:15:05.694Z,5.80
2017-11-11T23:20:06.773Z,5.80
2017-11-11T23:25:08.595Z,5.60
2017-11-11T23:30:09.664Z,5.60
2017-11-11T23:35:10.754Z,5.60
2017-11-11T23:40:11.800Z,5.50
2017-11-11T23:45:12.875Z,5.50
2017-11-11T23:50:13.939Z,5.50
2017-11-11T23:55:15.014Z,5.40
